EPSC 200100Z 26008KT CAVOK 19/12 Q1016 EPSC 200030Z 25004KT 210V270 CAVOK 19/11 Q1016 EPSC 200000Z VRB02KT CAVOK 20/10 Q1015 EPSC 192330Z 17003KT 120V220 CAVOK 20/10 Q1015 EPSC 192300Z VRB02KT CAVOK 19/11 Q1015 EPSC 192230Z 22003KT 150V270 CAVOK 21/10 Q1015 EPSC 192200Z 17003KT 140V230 CAVOK 21/10 Q1016 EPSC 192130Z 16004KT CAVOK 21/10 Q1015 EPSC 192100Z 16004KT CAVOK 21/11 Q1016 EPSC 192030Z 14006KT CAVOK 20/11 Q1016 EPSC 192000Z 15005KT CAVOK 21/11 Q1016 EPSC 191930Z 14005KT CAVOK 22/10 Q1016 EPSC 191900Z 14006KT CAVOK 22/11 Q1016 EPSC 191830Z 15005KT CAVOK 23/10 Q1016 EPSC 191800Z 16007KT CAVOK 25/11 Q1016 EPSC 191730Z 16007KT CAVOK 26/10 Q1017 EPSC 191700Z 15011KT CAVOK 26/11 Q1017 EPSC 191630Z 15009KT CAVOK 27/11 Q1017 EPSC 191600Z 16008KT CAVOK 27/10 Q1017 EPSC 191530Z 15011KT CAVOK 28/10 Q1017 EPSC 191500Z 14011KT CAVOK 28/10 Q1018 EPSC 191430Z 15011KT 120V180 CAVOK 28/10 Q1018 EPSC 191400Z 15010KT 110V180 CAVOK 27/10 Q1018 EPSC 191330Z 15011KT CAVOK 28/10 Q1019 EPSC 191300Z 16009KT 110V190 CAVOK 27/10 Q1019 EPSC 191230Z 15010KT 120V180 CAVOK 27/10 Q1019 EPSC 191200Z 16011KT CAVOK 26/10 Q1020 EPSC 191130Z 15011KT CAVOK 26/11 Q1020 EPSC 191100Z 15011KT 130V200 CAVOK 25/10 Q1020 EPSC 191030Z 16012KT CAVOK 24/10 Q1021 EPSC 191000Z 16010KT 130V200 CAVOK 24/10 Q1021 EPSC 190930Z 16010KT CAVOK 23/09 Q1021 EPSC 190900Z 15008KT 120V180 CAVOK 22/09 Q1021 EPSC 190830Z 16008KT 120V180 CAVOK 20/08 Q1022 EPSC 190800Z 15009KT CAVOK 20/07 Q1022 EPSC 190730Z 15008KT CAVOK 19/06 Q1022 EPSC 190700Z 15007KT 130V190 CAVOK 17/05 Q1022 EPSC 190630Z 15007KT CAVOK 16/03 Q1023 EPSC 190600Z 15008KT CAVOK 16/03 Q1022 EPSC 190530Z 14006KT CAVOK 14/02 Q1023 EPSC 190500Z 15007KT CAVOK 13/01 Q1022 EPSC 190430Z 14007KT CAVOK 12/01 Q1022 EPSC 190400Z 14006KT CAVOK 11/M00 Q1023 EPSC 190330Z 14006KT CAVOK 10/M01 Q1023 EPSC 190300Z 13007KT CAVOK 10/M01 Q1023 EPSC 190230Z 13007KT CAVOK 11/M01 Q1023 EPSC 190200Z 13008KT CAVOK 11/M01 Q1023 EPSC 190130Z 13007KT CAVOK 11/M01 Q1023 EPSC 190100Z 14007KT CAVOK 12/M01 Q1023 EPSC 190030Z 14007KT CAVOK 12/M01 Q1023 EPSC 190000Z 13008KT CAVOK 12/M01 Q1023 EPSC 182330Z 14009KT CAVOK 13/M01 Q1023 EPSC 182300Z 14009KT CAVOK 13/M01 Q1024 EPSC 182230Z 14009KT CAVOK 13/M01 Q1024 EPSC 182200Z 13009KT CAVOK 13/M00 Q1024 EPSC 182130Z 13009KT CAVOK 13/M00 Q1024 EPSC 182100Z 13008KT CAVOK 14/00 Q1024 EPSC 182030Z 13009KT CAVOK 14/00 Q1024 EPSC 182000Z 13008KT CAVOK 15/01 Q1024 EPSC 181930Z 13007KT CAVOK 15/02 Q1024 EPSC 181900Z 12006KT CAVOK 16/03 Q1024 EPSC 181830Z 14005KT CAVOK 19/03 Q1024 EPSC 181800Z 14007KT CAVOK 20/01 Q1024 EPSC 181730Z 15008KT CAVOK 21/01 Q1024 EPSC 181700Z 15009KT CAVOK 22/00 Q1024 EPSC 181630Z 16008KT CAVOK 22/00 Q1025 EPSC 181600Z 16009KT CAVOK 22/M00 Q1025 EPSC 181530Z 15010KT 120V180 CAVOK 22/00 Q1025 EPSC 181500Z 15010KT CAVOK 22/01 Q1025 EPSC 181430Z 15010KT 120V190 CAVOK 22/01 Q1025 EPSC 181400Z 16011KT CAVOK 22/01 Q1026

METAR Messwerte "SZCZECIN/GOLENIO" EPSC

Zurück zur Übersicht

Ortsname
Ländercode / m ü. NN
Zeit Temperatur Taupunkt Rel.
Luftfeuchte
Luftdruck:
Altimeter
NN
Station
Wind in Beaufort
(Knoten)
Sichtweite
(Meter)
Wolken
(Meter über Grund)
Wettererscheinung
SZCZECIN/GOLENIO
PL 47
Fr 20.05. 03:00191264 %1016
1016
1010
W 3 (8)>= 10000Nicht signifikant 
SZCZECIN/GOLENIO
PL 47
Fr 20.05. 02:30191160 %1016
1016
1010
WSW 2 (4)
SSW - W
>= 10000Nicht signifikant 
SZCZECIN/GOLENIO
PL 47
Fr 20.05. 02:00201053 %1015
1015
1009
Uml 1 (2)>= 10000Nicht signifikant 
SZCZECIN/GOLENIO
PL 47
Fr 20.05. 01:30201053 %1015
1015
1009
S 2 (3)
OSO - SW
>= 10000Nicht signifikant 
SZCZECIN/GOLENIO
PL 47
Fr 20.05. 01:00191160 %1015
1015
1009
Uml 1 (2)>= 10000Nicht signifikant 
SZCZECIN/GOLENIO
PL 47
Fr 20.05. 00:30211049 %1015
1015
1009
SW 2 (3)
SSO - W
>= 10000Nicht signifikant 
SZCZECIN/GOLENIO
PL 47
Fr 20.05. 00:00211049 %1016
1016
1010
S 2 (3)
SO - SW
>= 10000Nicht signifikant 
SZCZECIN/GOLENIO
PL 47
Do 19.05. 23:30211049 %1015
1015
1009
SSO 2 (4)>= 10000Nicht signifikant 
SZCZECIN/GOLENIO
PL 47
Do 19.05. 23:00211153 %1016
1016
1010
SSO 2 (4)>= 10000Nicht signifikant 
SZCZECIN/GOLENIO
PL 47
Do 19.05. 22:30201156 %1016
1016
1010
SO 2 (6)>= 10000Nicht signifikant 
SZCZECIN/GOLENIO
PL 47
Do 19.05. 22:00211153 %1016
1016
1010
SSO 2 (5)>= 10000Nicht signifikant 
SZCZECIN/GOLENIO
PL 47
Do 19.05. 21:30221046 %1016
1016
1010
SO 2 (5)>= 10000Nicht signifikant 
SZCZECIN/GOLENIO
PL 47
Do 19.05. 21:00221150 %1016
1016
1010
SO 2 (6)>= 10000Nicht signifikant 
SZCZECIN/GOLENIO
PL 47
Do 19.05. 20:30231044 %1016
1016
1010
SSO 2 (5)>= 10000Nicht signifikant 
SZCZECIN/GOLENIO
PL 47
Do 19.05. 20:00251141 %1016
1016
1010
SSO 3 (7)>= 10000Nicht signifikant 
SZCZECIN/GOLENIO
PL 47
Do 19.05. 19:30261037 %1017
1017
1011
SSO 3 (7)>= 10000Nicht signifikant 
SZCZECIN/GOLENIO
PL 47
Do 19.05. 19:00261139 %1017
1017
1011
SSO 4 (11)>= 10000Nicht signifikant 
SZCZECIN/GOLENIO
PL 47
Do 19.05. 18:30271137 %1017
1017
1011
SSO 3 (9)>= 10000Nicht signifikant 
SZCZECIN/GOLENIO
PL 47
Do 19.05. 18:00271034 %1017
1017
1011
SSO 3 (8)>= 10000Nicht signifikant 
SZCZECIN/GOLENIO
PL 47
Do 19.05. 17:30281032 %1017
1017
1011
SSO 4 (11)>= 10000Nicht signifikant 
SZCZECIN/GOLENIO
PL 47
Do 19.05. 17:00281032 %1018
1018
1012
SO 4 (11)>= 10000Nicht signifikant 
SZCZECIN/GOLENIO
PL 47
Do 19.05. 16:30281032 %1018
1018
1012
SSO 4 (11)
OSO - S
>= 10000Nicht signifikant 
SZCZECIN/GOLENIO
PL 47
Do 19.05. 16:00271034 %1018
1018
1012
SSO 3 (10)
OSO - S
>= 10000Nicht signifikant 
SZCZECIN/GOLENIO
PL 47
Do 19.05. 15:30281032 %1019
1019
1013
SSO 4 (11)>= 10000Nicht signifikant 
SZCZECIN/GOLENIO
PL 47
Do 19.05. 15:00271034 %1019
1019
1013
SSO 3 (9)
OSO - S
>= 10000Nicht signifikant 
SZCZECIN/GOLENIO
PL 47
Do 19.05. 14:30271034 %1019
1019
1013
SSO 3 (10)
OSO - S
>= 10000Nicht signifikant 
SZCZECIN/GOLENIO
PL 47
Do 19.05. 14:00261037 %1020
1020
1014
SSO 4 (11)>= 10000Nicht signifikant 
SZCZECIN/GOLENIO
PL 47
Do 19.05. 13:30261139 %1020
1020
1014
SSO 4 (11)>= 10000Nicht signifikant 
SZCZECIN/GOLENIO
PL 47
Do 19.05. 13:00251039 %1020
1020
1014
SSO 4 (11)
SO - SSW
>= 10000Nicht signifikant 
SZCZECIN/GOLENIO
PL 47
Do 19.05. 12:30241041 %1021
1021
1015
SSO 4 (12)>= 10000Nicht signifikant 
SZCZECIN/GOLENIO
PL 47
Do 19.05. 12:00241041 %1021
1021
1015
SSO 3 (10)
SO - SSW
>= 10000Nicht signifikant 
SZCZECIN/GOLENIO
PL 47
Do 19.05. 11:3023941 %1021
1021
1015
SSO 3 (10)>= 10000Nicht signifikant 
SZCZECIN/GOLENIO
PL 47
Do 19.05. 11:0022943 %1021
1021
1015
SSO 3 (8)
OSO - S
>= 10000Nicht signifikant 
SZCZECIN/GOLENIO
PL 47
Do 19.05. 10:3020846 %1022
1022
1016
SSO 3 (8)
OSO - S
>= 10000Nicht signifikant 
SZCZECIN/GOLENIO
PL 47
Do 19.05. 10:0020743 %1022
1022
1016
SSO 3 (9)>= 10000Nicht signifikant 
SZCZECIN/GOLENIO
PL 47
Do 19.05. 09:3019643 %1022
1022
1016
SSO 3 (8)>= 10000Nicht signifikant 
SZCZECIN/GOLENIO
PL 47
Do 19.05. 09:0017545 %1022
1022
1016
SSO 3 (7)
SO - S
>= 10000Nicht signifikant 
SZCZECIN/GOLENIO
PL 47
Do 19.05. 08:3016342 %1023
1023
1017
SSO 3 (7)>= 10000Nicht signifikant 
SZCZECIN/GOLENIO
PL 47
Do 19.05. 08:0016342 %1022
1022
1016
SSO 3 (8)>= 10000Nicht signifikant 
SZCZECIN/GOLENIO
PL 47
Do 19.05. 07:3014244 %1023
1023
1017
SO 2 (6)>= 10000Nicht signifikant 
SZCZECIN/GOLENIO
PL 47
Do 19.05. 07:0013144 %1022
1022
1016
SSO 3 (7)>= 10000Nicht signifikant 
SZCZECIN/GOLENIO
PL 47
Do 19.05. 06:3012147 %1022
1022
1016
SO 3 (7)>= 10000Nicht signifikant 
SZCZECIN/GOLENIO
PL 47
Do 19.05. 06:0011-047 %1023
1023
1017
SO 2 (6)>= 10000Nicht signifikant 
SZCZECIN/GOLENIO
PL 47
Do 19.05. 05:3010-146 %1023
1023
1017
SO 2 (6)>= 10000Nicht signifikant 
SZCZECIN/GOLENIO
PL 47
Do 19.05. 05:0010-146 %1023
1023
1017
SO 3 (7)>= 10000Nicht signifikant 
SZCZECIN/GOLENIO
PL 47
Do 19.05. 04:3011-143 %1023
1023
1017
SO 3 (7)>= 10000Nicht signifikant 
SZCZECIN/GOLENIO
PL 47
Do 19.05. 04:0011-143 %1023
1023
1017
SO 3 (8)>= 10000Nicht signifikant 
SZCZECIN/GOLENIO
PL 47
Do 19.05. 03:3011-143 %1023
1023
1017
SO 3 (7)>= 10000Nicht signifikant 
SZCZECIN/GOLENIO
PL 47
Do 19.05. 03:0012-140 %1023
1023
1017
SO 3 (7)>= 10000Nicht signifikant 
SZCZECIN/GOLENIO
PL 47
Do 19.05. 02:3012-140 %1023
1023
1017
SO 3 (7)>= 10000Nicht signifikant 
SZCZECIN/GOLENIO
PL 47
Do 19.05. 02:0012-140 %1023
1023
1017
SO 3 (8)>= 10000Nicht signifikant 
SZCZECIN/GOLENIO
PL 47
Do 19.05. 01:3013-138 %1023
1023
1017
SO 3 (9)>= 10000Nicht signifikant 
SZCZECIN/GOLENIO
PL 47
Do 19.05. 01:0013-138 %1024
1024
1018
SO 3 (9)>= 10000Nicht signifikant 
SZCZECIN/GOLENIO
PL 47
Do 19.05. 00:3013-138 %1024
1024
1018
SO 3 (9)>= 10000Nicht signifikant 
SZCZECIN/GOLENIO
PL 47
Do 19.05. 00:0013-041 %1024
1024
1018
SO 3 (9)>= 10000Nicht signifikant 
SZCZECIN/GOLENIO
PL 47
Mi 18.05. 23:3013-041 %1024
1024
1018
SO 3 (9)>= 10000Nicht signifikant 
SZCZECIN/GOLENIO
PL 47
Mi 18.05. 23:0014038 %1024
1024
1018
SO 3 (8)>= 10000Nicht signifikant 
SZCZECIN/GOLENIO
PL 47
Mi 18.05. 22:3014038 %1024
1024
1018
SO 3 (9)>= 10000Nicht signifikant 
SZCZECIN/GOLENIO
PL 47
Mi 18.05. 22:0015139 %1024
1024
1018
SO 3 (8)>= 10000Nicht signifikant 
SZCZECIN/GOLENIO
PL 47
Mi 18.05. 21:3015241 %1024
1024
1018
SO 3 (7)>= 10000Nicht signifikant 
SZCZECIN/GOLENIO
PL 47
Mi 18.05. 21:0016342 %1024
1024
1018
OSO 2 (6)>= 10000Nicht signifikant 
SZCZECIN/GOLENIO
PL 47
Mi 18.05. 20:3019334 %1024
1024
1018
SO 2 (5)>= 10000Nicht signifikant 
SZCZECIN/GOLENIO
PL 47
Mi 18.05. 20:0020128 %1024
1024
1018
SO 3 (7)>= 10000Nicht signifikant 
SZCZECIN/GOLENIO
PL 47
Mi 18.05. 19:3021126 %1024
1024
1018
SSO 3 (8)>= 10000Nicht signifikant 
SZCZECIN/GOLENIO
PL 47
Mi 18.05. 19:0022023 %1024
1024
1018
SSO 3 (9)>= 10000Nicht signifikant 
SZCZECIN/GOLENIO
PL 47
Mi 18.05. 18:3022023 %1025
1025
1019
SSO 3 (8)>= 10000Nicht signifikant 
SZCZECIN/GOLENIO
PL 47
Mi 18.05. 18:0022-023 %1025
1025
1019
SSO 3 (9)>= 10000Nicht signifikant 
SZCZECIN/GOLENIO
PL 47
Mi 18.05. 17:3022023 %1025
1025
1019
SSO 3 (10)
OSO - S
>= 10000Nicht signifikant 
SZCZECIN/GOLENIO
PL 47
Mi 18.05. 17:0022125 %1025
1025
1019
SSO 3 (10)>= 10000Nicht signifikant 
SZCZECIN/GOLENIO
PL 47
Mi 18.05. 16:3022125 %1025
1025
1019
SSO 3 (10)
OSO - S
>= 10000Nicht signifikant 
SZCZECIN/GOLENIO
PL 47
Mi 18.05. 16:0022125 %1026
1026
1020
SSO 4 (11)>= 10000Nicht signifikant 

Altimeter: Einstellung am Altimeter (Höhenmesser), die Höhe 0 muss auf diesen Luftdruckwert zeigen, damit das Gerät die Stationshöhe richtig anzeigt.

NN: Luftdruck reduziert auf "Normal Null", auf Meereshöhe, dieser von der Temperatur abhängige Wert wird bisweilen unkorrekt einfach als "Luftdruck" bezeichnet. Eigentlich nur eine fiktive Größe, die es erlaubt, Stationen auf unterschiedlichen Höhen miteinander zu vergleichen.

Station: Realer Luftdruck an der Station.